sensor_id;sensor_type;location;lat;lon;timestamp;P1;durP1;ratioP1;P2;durP2;ratioP2
50267;SDS011;36153;50.960;6.220;2023-07-13T00:01:36;2.63;;;0.68;;
50267;SDS011;36153;50.960;6.220;2023-07-13T00:04:38;3.90;;;0.90;;
50267;SDS011;36153;50.960;6.220;2023-07-13T00:07:39;3.75;;;0.90;;
50267;SDS011;36153;50.960;6.220;2023-07-13T00:13:53;3.90;;;1.08;;
50267;SDS011;36153;50.960;6.220;2023-07-13T00:16:54;0.98;;;0.43;;
50267;SDS011;36153;50.960;6.220;2023-07-13T00:19:55;2.80;;;0.95;;
50267;SDS011;36153;50.960;6.220;2023-07-13T00:22:56;3.90;;;0.95;;
50267;SDS011;36153;50.960;6.220;2023-07-13T00:25:57;3.85;;;0.82;;
50267;SDS011;36153;50.960;6.220;2023-07-13T00:28:57;5.05;;;1.23;;
50267;SDS011;36153;50.960;6.220;2023-07-13T00:31:58;2.10;;;0.63;;
50267;SDS011;36153;50.960;6.220;2023-07-13T00:34:59;3.25;;;0.88;;
50267;SDS011;36153;50.960;6.220;2023-07-13T00:38:00;4.88;;;1.10;;
50267;SDS011;36153;50.960;6.220;2023-07-13T00:41:01;4.72;;;1.00;;
50267;SDS011;36153;50.960;6.220;2023-07-13T00:44:03;3.63;;;0.85;;
50267;SDS011;36153;50.960;6.220;2023-07-13T00:47:04;4.53;;;1.15;;
50267;SDS011;36153;50.960;6.220;2023-07-13T00:50:06;4.55;;;1.15;;
50267;SDS011;36153;50.960;6.220;2023-07-13T00:53:08;3.35;;;1.17;;
50267;SDS011;36153;50.960;6.220;2023-07-13T00:56:09;4.22;;;1.02;;
50267;SDS011;36153;50.960;6.220;2023-07-13T00:59:10;2.38;;;1.08;;
50267;SDS011;36153;50.960;6.220;2023-07-13T01:02:11;4.03;;;0.90;;
50267;SDS011;36153;50.960;6.220;2023-07-13T01:05:13;3.67;;;0.80;;
50267;SDS011;36153;50.960;6.220;2023-07-13T01:08:15;3.33;;;1.08;;
50267;SDS011;36153;50.960;6.220;2023-07-13T01:11:19;3.55;;;1.00;;
50267;SDS011;36153;50.960;6.220;2023-07-13T01:14:22;2.33;;;1.00;;
50267;SDS011;36153;50.960;6.220;2023-07-13T01:17:22;3.00;;;1.00;;
50267;SDS011;36153;50.960;6.220;2023-07-13T01:20:23;2.63;;;0.82;;
50267;SDS011;36153;50.960;6.220;2023-07-13T01:23:25;5.00;;;0.95;;
50267;SDS011;36153;50.960;6.220;2023-07-13T01:26:27;2.95;;;0.70;;
50267;SDS011;36153;50.960;6.220;2023-07-13T01:29:27;2.70;;;0.98;;
50267;SDS011;36153;50.960;6.220;2023-07-13T01:32:28;4.68;;;1.10;;
50267;SDS011;36153;50.960;6.220;2023-07-13T01:35:28;3.78;;;1.00;;
50267;SDS011;36153;50.960;6.220;2023-07-13T01:38:31;5.03;;;1.30;;
50267;SDS011;36153;50.960;6.220;2023-07-13T01:41:34;4.97;;;1.23;;
50267;SDS011;36153;50.960;6.220;2023-07-13T01:44:34;4.07;;;0.80;;
50267;SDS011;36153;50.960;6.220;2023-07-13T01:47:34;2.90;;;1.20;;
50267;SDS011;36153;50.960;6.220;2023-07-13T01:50:35;3.17;;;0.60;;
50267;SDS011;36153;50.960;6.220;2023-07-13T01:53:35;3.63;;;1.50;;
50267;SDS011;36153;50.960;6.220;2023-07-13T01:56:36;2.28;;;1.15;;
50267;SDS011;36153;50.960;6.220;2023-07-13T01:59:36;4.00;;;0.90;;
50267;SDS011;36153;50.960;6.220;2023-07-13T02:02:37;3.28;;;0.90;;
50267;SDS011;36153;50.960;6.220;2023-07-13T02:05:37;2.53;;;1.00;;
50267;SDS011;36153;50.960;6.220;2023-07-13T02:08:37;2.20;;;0.90;;
50267;SDS011;36153;50.960;6.220;2023-07-13T02:11:38;3.10;;;0.80;;
50267;SDS011;36153;50.960;6.220;2023-07-13T02:14:38;1.95;;;1.23;;
50267;SDS011;36153;50.960;6.220;2023-07-13T02:17:38;2.80;;;0.80;;
50267;SDS011;36153;50.960;6.220;2023-07-13T02:20:39;1.20;;;0.60;;
50267;SDS011;36153;50.960;6.220;2023-07-13T02:23:39;3.33;;;0.85;;
50267;SDS011;36153;50.960;6.220;2023-07-13T02:26:40;3.28;;;1.33;;
50267;SDS011;36153;50.960;6.220;2023-07-13T02:29:40;3.22;;;1.20;;
50267;SDS011;36153;50.960;6.220;2023-07-13T02:32:40;3.55;;;0.90;;
50267;SDS011;36153;50.960;6.220;2023-07-13T02:35:41;3.63;;;1.35;;
50267;SDS011;36153;50.960;6.220;2023-07-13T02:38:41;2.55;;;0.75;;
50267;SDS011;36153;50.960;6.220;2023-07-13T02:41:42;5.47;;;1.20;;
50267;SDS011;36153;50.960;6.220;2023-07-13T02:44:42;2.30;;;1.27;;
50267;SDS011;36153;50.960;6.220;2023-07-13T02:47:42;3.53;;;1.13;;
50267;SDS011;36153;50.960;6.220;2023-07-13T02:50:43;2.83;;;1.00;;
50267;SDS011;36153;50.960;6.220;2023-07-13T02:53:44;1.58;;;0.70;;
50267;SDS011;36153;50.960;6.220;2023-07-13T02:56:45;3.20;;;1.13;;
50267;SDS011;36153;50.960;6.220;2023-07-13T02:59:45;4.75;;;1.40;;
50267;SDS011;36153;50.960;6.220;2023-07-13T03:02:45;2.20;;;1.10;;
50267;SDS011;36153;50.960;6.220;2023-07-13T03:05:46;3.80;;;1.60;;
50267;SDS011;36153;50.960;6.220;2023-07-13T03:08:50;1.70;;;1.20;;
50267;SDS011;36153;50.960;6.220;2023-07-13T03:11:54;4.28;;;0.70;;
50267;SDS011;36153;50.960;6.220;2023-07-13T03:14:55;4.18;;;1.20;;
50267;SDS011;36153;50.960;6.220;2023-07-13T03:17:55;5.30;;;1.38;;
50267;SDS011;36153;50.960;6.220;2023-07-13T03:20:55;4.45;;;1.20;;
50267;SDS011;36153;50.960;6.220;2023-07-13T03:23:56;2.00;;;1.10;;
50267;SDS011;36153;50.960;6.220;2023-07-13T03:26:56;3.00;;;1.25;;
50267;SDS011;36153;50.960;6.220;2023-07-13T03:29:56;2.90;;;1.05;;
50267;SDS011;36153;50.960;6.220;2023-07-13T03:32:57;3.45;;;1.85;;
50267;SDS011;36153;50.960;6.220;2023-07-13T03:35:57;2.78;;;1.33;;
50267;SDS011;36153;50.960;6.220;2023-07-13T03:38:58;6.97;;;1.63;;
50267;SDS011;36153;50.960;6.220;2023-07-13T03:42:00;2.90;;;1.30;;
50267;SDS011;36153;50.960;6.220;2023-07-13T03:45:00;3.03;;;1.25;;
50267;SDS011;36153;50.960;6.220;2023-07-13T03:48:01;3.08;;;1.35;;
50267;SDS011;36153;50.960;6.220;2023-07-13T03:51:01;3.08;;;1.33;;
50267;SDS011;36153;50.960;6.220;2023-07-13T03:54:01;4.10;;;1.42;;
50267;SDS011;36153;50.960;6.220;2023-07-13T03:57:05;3.45;;;1.30;;
50267;SDS011;36153;50.960;6.220;2023-07-13T04:00:06;5.72;;;1.27;;
50267;SDS011;36153;50.960;6.220;2023-07-13T04:03:07;3.72;;;1.40;;
50267;SDS011;36153;50.960;6.220;2023-07-13T04:06:12;2.70;;;1.50;;
50267;SDS011;36153;50.960;6.220;2023-07-13T04:09:15;1.98;;;0.82;;
50267;SDS011;36153;50.960;6.220;2023-07-13T04:12:15;3.53;;;1.02;;
50267;SDS011;36153;50.960;6.220;2023-07-13T04:15:16;5.68;;;1.30;;
50267;SDS011;36153;50.960;6.220;2023-07-13T04:18:16;4.80;;;1.38;;
50267;SDS011;36153;50.960;6.220;2023-07-13T04:21:16;3.13;;;1.20;;
50267;SDS011;36153;50.960;6.220;2023-07-13T04:24:17;2.10;;;1.10;;
50267;SDS011;36153;50.960;6.220;2023-07-13T04:27:17;2.67;;;1.00;;
50267;SDS011;36153;50.960;6.220;2023-07-13T04:30:17;2.47;;;1.08;;
50267;SDS011;36153;50.960;6.220;2023-07-13T04:33:18;5.35;;;1.15;;
50267;SDS011;36153;50.960;6.220;2023-07-13T04:36:22;3.20;;;1.27;;
50267;SDS011;36153;50.960;6.220;2023-07-13T04:39:22;4.50;;;1.20;;
50267;SDS011;36153;50.960;6.220;2023-07-13T04:42:23;4.88;;;1.50;;
50267;SDS011;36153;50.960;6.220;2023-07-13T04:45:23;6.18;;;1.63;;
50267;SDS011;36153;50.960;6.220;2023-07-13T04:48:24;3.92;;;1.20;;
50267;SDS011;36153;50.960;6.220;2023-07-13T04:51:24;5.60;;;1.17;;
50267;SDS011;36153;50.960;6.220;2023-07-13T04:54:25;11.70;;;1.95;;
50267;SDS011;36153;50.960;6.220;2023-07-13T04:57:26;6.60;;;1.80;;
50267;SDS011;36153;50.960;6.220;2023-07-13T05:00:27;3.25;;;1.38;;
50267;SDS011;36153;50.960;6.220;2023-07-13T05:03:28;3.95;;;1.02;;
50267;SDS011;36153;50.960;6.220;2023-07-13T05:06:28;2.80;;;1.27;;
50267;SDS011;36153;50.960;6.220;2023-07-13T05:09:30;3.25;;;0.93;;
50267;SDS011;36153;50.960;6.220;2023-07-13T05:12:30;4.07;;;1.10;;
50267;SDS011;36153;50.960;6.220;2023-07-13T05:15:32;5.72;;;1.55;;
50267;SDS011;36153;50.960;6.220;2023-07-13T05:18:33;3.63;;;1.35;;
50267;SDS011;36153;50.960;6.220;2023-07-13T05:21:34;4.07;;;1.58;;
50267;SDS011;36153;50.960;6.220;2023-07-13T05:24:34;3.95;;;1.50;;
50267;SDS011;36153;50.960;6.220;2023-07-13T05:27:35;4.10;;;1.77;;
50267;SDS011;36153;50.960;6.220;2023-07-13T05:30:36;3.80;;;1.20;;
50267;SDS011;36153;50.960;6.220;2023-07-13T05:33:36;4.75;;;1.50;;
50267;SDS011;36153;50.960;6.220;2023-07-13T05:36:37;4.00;;;1.38;;
50267;SDS011;36153;50.960;6.220;2023-07-13T05:39:37;5.38;;;1.83;;
50267;SDS011;36153;50.960;6.220;2023-07-13T05:42:37;5.07;;;1.77;;
50267;SDS011;36153;50.960;6.220;2023-07-13T05:45:38;1.80;;;1.65;;
50267;SDS011;36153;50.960;6.220;2023-07-13T05:48:39;5.40;;;1.60;;
50267;SDS011;36153;50.960;6.220;2023-07-13T05:51:40;4.18;;;1.42;;
50267;SDS011;36153;50.960;6.220;2023-07-13T05:54:40;3.28;;;1.77;;
50267;SDS011;36153;50.960;6.220;2023-07-13T05:57:41;7.05;;;1.80;;
50267;SDS011;36153;50.960;6.220;2023-07-13T06:00:41;5.07;;;1.83;;
50267;SDS011;36153;50.960;6.220;2023-07-13T06:03:41;5.15;;;1.73;;
50267;SDS011;36153;50.960;6.220;2023-07-13T06:06:42;3.20;;;1.50;;
50267;SDS011;36153;50.960;6.220;2023-07-13T06:09:42;7.75;;;2.17;;
50267;SDS011;36153;50.960;6.220;2023-07-13T06:12:42;4.20;;;1.88;;
50267;SDS011;36153;50.960;6.220;2023-07-13T06:15:43;4.25;;;1.70;;
50267;SDS011;36153;50.960;6.220;2023-07-13T06:18:43;5.60;;;1.73;;
50267;SDS011;36153;50.960;6.220;2023-07-13T06:21:44;7.28;;;1.55;;
50267;SDS011;36153;50.960;6.220;2023-07-13T06:24:44;6.57;;;1.70;;
50267;SDS011;36153;50.960;6.220;2023-07-13T06:27:44;7.68;;;1.80;;
50267;SDS011;36153;50.960;6.220;2023-07-13T06:30:45;5.80;;;2.00;;
50267;SDS011;36153;50.960;6.220;2023-07-13T06:33:45;11.25;;;2.95;;
50267;SDS011;36153;50.960;6.220;2023-07-13T06:36:45;8.85;;;1.85;;
50267;SDS011;36153;50.960;6.220;2023-07-13T06:39:46;4.80;;;2.13;;
50267;SDS011;36153;50.960;6.220;2023-07-13T06:42:46;4.72;;;1.77;;
50267;SDS011;36153;50.960;6.220;2023-07-13T06:45:47;6.93;;;2.20;;
50267;SDS011;36153;50.960;6.220;2023-07-13T06:48:49;3.65;;;2.13;;
50267;SDS011;36153;50.960;6.220;2023-07-13T06:51:50;6.47;;;1.90;;
50267;SDS011;36153;50.960;6.220;2023-07-13T06:54:50;6.25;;;1.92;;
50267;SDS011;36153;50.960;6.220;2023-07-13T06:57:51;10.13;;;2.22;;
50267;SDS011;36153;50.960;6.220;2023-07-13T07:00:52;6.97;;;2.30;;
50267;SDS011;36153;50.960;6.220;2023-07-13T07:03:52;5.47;;;1.88;;
50267;SDS011;36153;50.960;6.220;2023-07-13T07:06:53;7.82;;;2.55;;
50267;SDS011;36153;50.960;6.220;2023-07-13T07:09:53;3.30;;;2.10;;
50267;SDS011;36153;50.960;6.220;2023-07-13T07:12:53;4.25;;;2.30;;
50267;SDS011;36153;50.960;6.220;2023-07-13T07:15:53;6.00;;;2.08;;
50267;SDS011;36153;50.960;6.220;2023-07-13T07:18:54;9.45;;;2.35;;
50267;SDS011;36153;50.960;6.220;2023-07-13T07:21:54;4.20;;;1.92;;
50267;SDS011;36153;50.960;6.220;2023-07-13T07:24:55;5.53;;;2.40;;
50267;SDS011;36153;50.960;6.220;2023-07-13T07:27:55;4.93;;;2.40;;
50267;SDS011;36153;50.960;6.220;2023-07-13T07:30:57;7.72;;;2.65;;
50267;SDS011;36153;50.960;6.220;2023-07-13T07:33:58;7.93;;;2.42;;
50267;SDS011;36153;50.960;6.220;2023-07-13T07:36:59;6.45;;;2.45;;
50267;SDS011;36153;50.960;6.220;2023-07-13T07:40:00;4.68;;;2.08;;
50267;SDS011;36153;50.960;6.220;2023-07-13T07:43:01;6.82;;;2.95;;
50267;SDS011;36153;50.960;6.220;2023-07-13T07:46:01;6.47;;;2.38;;
50267;SDS011;36153;50.960;6.220;2023-07-13T07:49:02;6.20;;;2.40;;
50267;SDS011;36153;50.960;6.220;2023-07-13T07:52:03;4.00;;;2.22;;
50267;SDS011;36153;50.960;6.220;2023-07-13T07:55:04;4.50;;;2.00;;
50267;SDS011;36153;50.960;6.220;2023-07-13T07:58:06;5.65;;;1.75;;
50267;SDS011;36153;50.960;6.220;2023-07-13T08:01:07;7.85;;;2.08;;
50267;SDS011;36153;50.960;6.220;2023-07-13T08:04:07;6.30;;;1.73;;
50267;SDS011;36153;50.960;6.220;2023-07-13T08:07:09;8.23;;;2.40;;
50267;SDS011;36153;50.960;6.220;2023-07-13T08:10:09;4.93;;;2.33;;
50267;SDS011;36153;50.960;6.220;2023-07-13T08:13:10;4.97;;;1.60;;
50267;SDS011;36153;50.960;6.220;2023-07-13T08:16:10;7.18;;;1.92;;
50267;SDS011;36153;50.960;6.220;2023-07-13T08:19:11;7.88;;;1.80;;
50267;SDS011;36153;50.960;6.220;2023-07-13T08:22:12;3.97;;;1.60;;
50267;SDS011;36153;50.960;6.220;2023-07-13T08:25:12;5.90;;;2.42;;
50267;SDS011;36153;50.960;6.220;2023-07-13T08:28:13;4.22;;;1.90;;
50267;SDS011;36153;50.960;6.220;2023-07-13T08:31:13;6.95;;;1.98;;
50267;SDS011;36153;50.960;6.220;2023-07-13T08:34:14;4.82;;;1.83;;
50267;SDS011;36153;50.960;6.220;2023-07-13T08:37:15;8.43;;;2.60;;
50267;SDS011;36153;50.960;6.220;2023-07-13T08:40:16;6.80;;;2.20;;
50267;SDS011;36153;50.960;6.220;2023-07-13T08:43:20;3.20;;;2.22;;
50267;SDS011;36153;50.960;6.220;2023-07-13T08:46:32;7.75;;;2.50;;
50267;SDS011;36153;50.960;6.220;2023-07-13T08:49:36;3.45;;;1.83;;
50267;SDS011;36153;50.960;6.220;2023-07-13T08:52:37;4.03;;;1.60;;
50267;SDS011;36153;50.960;6.220;2023-07-13T08:55:40;3.63;;;1.80;;
50267;SDS011;36153;50.960;6.220;2023-07-13T08:58:41;4.53;;;2.35;;
50267;SDS011;36153;50.960;6.220;2023-07-13T09:04:53;8.80;;;2.75;;
50267;SDS011;36153;50.960;6.220;2023-07-13T09:11:10;6.75;;;3.30;;
50267;SDS011;36153;50.960;6.220;2023-07-13T09:14:32;4.47;;;2.15;;
50267;SDS011;36153;50.960;6.220;2023-07-13T09:17:41;5.03;;;2.08;;
50267;SDS011;36153;50.960;6.220;2023-07-13T09:20:51;5.88;;;2.05;;
50267;SDS011;36153;50.960;6.220;2023-07-13T09:23:54;5.50;;;2.25;;
50267;SDS011;36153;50.960;6.220;2023-07-13T09:27:00;5.38;;;1.98;;
50267;SDS011;36153;50.960;6.220;2023-07-13T09:30:10;5.20;;;2.05;;
50267;SDS011;36153;50.960;6.220;2023-07-13T09:33:30;4.80;;;2.10;;
50267;SDS011;36153;50.960;6.220;2023-07-13T09:36:32;3.33;;;2.10;;
50267;SDS011;36153;50.960;6.220;2023-07-13T09:39:40;6.63;;;2.20;;
50267;SDS011;36153;50.960;6.220;2023-07-13T09:42:42;5.38;;;2.13;;
50267;SDS011;36153;50.960;6.220;2023-07-13T09:45:45;3.38;;;2.10;;
50267;SDS011;36153;50.960;6.220;2023-07-13T09:48:47;3.53;;;1.77;;
50267;SDS011;36153;50.960;6.220;2023-07-13T09:51:49;4.07;;;2.10;;
50267;SDS011;36153;50.960;6.220;2023-07-13T09:54:59;4.30;;;1.80;;
50267;SDS011;36153;50.960;6.220;2023-07-13T09:58:18;6.55;;;2.28;;
50267;SDS011;36153;50.960;6.220;2023-07-13T10:01:31;5.68;;;2.08;;
50267;SDS011;36153;50.960;6.220;2023-07-13T10:04:36;4.90;;;1.60;;
50267;SDS011;36153;50.960;6.220;2023-07-13T10:07:41;4.25;;;2.47;;
50267;SDS011;36153;50.960;6.220;2023-07-13T10:10:47;3.28;;;2.00;;
50267;SDS011;36153;50.960;6.220;2023-07-13T10:13:55;6.35;;;2.10;;
50267;SDS011;36153;50.960;6.220;2023-07-13T10:17:00;4.45;;;2.28;;
50267;SDS011;36153;50.960;6.220;2023-07-13T10:20:03;3.97;;;1.63;;
50267;SDS011;36153;50.960;6.220;2023-07-13T10:26:15;6.38;;;1.55;;
50267;SDS011;36153;50.960;6.220;2023-07-13T10:29:19;3.70;;;1.10;;
50267;SDS011;36153;50.960;6.220;2023-07-13T10:32:23;5.53;;;1.52;;
50267;SDS011;36153;50.960;6.220;2023-07-13T10:35:24;2.08;;;1.33;;
50267;SDS011;36153;50.960;6.220;2023-07-13T10:38:29;5.57;;;1.45;;
50267;SDS011;36153;50.960;6.220;2023-07-13T10:41:30;4.63;;;1.65;;
50267;SDS011;36153;50.960;6.220;2023-07-13T10:44:35;4.57;;;1.20;;
50267;SDS011;36153;50.960;6.220;2023-07-13T10:47:35;2.00;;;1.23;;
50267;SDS011;36153;50.960;6.220;2023-07-13T10:50:36;2.97;;;1.30;;
50267;SDS011;36153;50.960;6.220;2023-07-13T10:53:40;2.95;;;1.73;;
50267;SDS011;36153;50.960;6.220;2023-07-13T10:56:41;6.63;;;2.22;;
50267;SDS011;36153;50.960;6.220;2023-07-13T10:59:41;3.35;;;1.40;;
50267;SDS011;36153;50.960;6.220;2023-07-13T11:02:41;3.58;;;1.50;;
50267;SDS011;36153;50.960;6.220;2023-07-13T11:05:42;5.05;;;1.40;;
50267;SDS011;36153;50.960;6.220;2023-07-13T11:11:47;2.70;;;1.30;;
50267;SDS011;36153;50.960;6.220;2023-07-13T11:18:10;5.93;;;1.27;;
50267;SDS011;36153;50.960;6.220;2023-07-13T11:21:21;2.53;;;1.15;;
50267;SDS011;36153;50.960;6.220;2023-07-13T11:24:28;3.03;;;1.45;;
50267;SDS011;36153;50.960;6.220;2023-07-13T11:30:32;4.27;;;1.27;;
50267;SDS011;36153;50.960;6.220;2023-07-13T11:36:39;2.95;;;1.17;;
50267;SDS011;36153;50.960;6.220;2023-07-13T11:39:44;4.20;;;1.70;;
50267;SDS011;36153;50.960;6.220;2023-07-13T11:42:46;4.32;;;1.52;;
50267;SDS011;36153;50.960;6.220;2023-07-13T11:45:47;2.47;;;1.08;;
50267;SDS011;36153;50.960;6.220;2023-07-13T11:48:47;2.63;;;0.90;;
50267;SDS011;36153;50.960;6.220;2023-07-13T11:51:49;4.53;;;1.42;;
50267;SDS011;36153;50.960;6.220;2023-07-13T11:54:54;2.58;;;1.10;;
50267;SDS011;36153;50.960;6.220;2023-07-13T12:01:00;1.30;;;0.80;;
50267;SDS011;36153;50.960;6.220;2023-07-13T12:04:04;2.47;;;1.05;;
50267;SDS011;36153;50.960;6.220;2023-07-13T12:07:07;2.75;;;0.90;;
50267;SDS011;36153;50.960;6.220;2023-07-13T12:10:21;3.78;;;1.27;;
50267;SDS011;36153;50.960;6.220;2023-07-13T12:13:24;2.38;;;1.17;;
50267;SDS011;36153;50.960;6.220;2023-07-13T12:19:38;3.22;;;1.10;;
50267;SDS011;36153;50.960;6.220;2023-07-13T12:22:40;3.58;;;1.13;;
50267;SDS011;36153;50.960;6.220;2023-07-13T12:25:46;3.50;;;1.25;;
50267;SDS011;36153;50.960;6.220;2023-07-13T12:28:51;2.08;;;1.50;;
50267;SDS011;36153;50.960;6.220;2023-07-13T12:31:56;2.10;;;1.00;;
50267;SDS011;36153;50.960;6.220;2023-07-13T12:35:13;5.10;;;1.23;;
50267;SDS011;36153;50.960;6.220;2023-07-13T12:38:15;2.08;;;0.80;;
50267;SDS011;36153;50.960;6.220;2023-07-13T12:41:16;4.15;;;1.00;;
50267;SDS011;36153;50.960;6.220;2023-07-13T12:44:35;2.42;;;1.00;;
50267;SDS011;36153;50.960;6.220;2023-07-13T12:47:43;2.30;;;0.88;;
50267;SDS011;36153;50.960;6.220;2023-07-13T12:50:47;3.83;;;1.58;;
50267;SDS011;36153;50.960;6.220;2023-07-13T12:53:55;1.42;;;0.93;;
50267;SDS011;36153;50.960;6.220;2023-07-13T12:56:58;1.90;;;0.80;;
50267;SDS011;36153;50.960;6.220;2023-07-13T12:59:59;3.20;;;0.95;;
50267;SDS011;36153;50.960;6.220;2023-07-13T13:03:11;3.05;;;1.00;;
50267;SDS011;36153;50.960;6.220;2023-07-13T13:09:19;2.63;;;1.65;;
50267;SDS011;36153;50.960;6.220;2023-07-13T13:12:20;3.53;;;1.05;;
50267;SDS011;36153;50.960;6.220;2023-07-13T13:15:20;1.70;;;1.17;;
50267;SDS011;36153;50.960;6.220;2023-07-13T13:18:23;1.60;;;1.13;;
50267;SDS011;36153;50.960;6.220;2023-07-13T13:21:23;5.05;;;1.60;;
50267;SDS011;36153;50.960;6.220;2023-07-13T13:24:26;2.17;;;1.30;;
50267;SDS011;36153;50.960;6.220;2023-07-13T13:27:27;2.72;;;1.23;;
50267;SDS011;36153;50.960;6.220;2023-07-13T13:30:31;3.38;;;1.08;;
50267;SDS011;36153;50.960;6.220;2023-07-13T13:33:31;3.50;;;1.30;;
50267;SDS011;36153;50.960;6.220;2023-07-13T13:36:32;4.28;;;1.73;;
50267;SDS011;36153;50.960;6.220;2023-07-13T13:39:34;4.82;;;1.17;;
50267;SDS011;36153;50.960;6.220;2023-07-13T13:42:36;3.33;;;1.00;;
50267;SDS011;36153;50.960;6.220;2023-07-13T13:45:37;5.55;;;1.48;;
50267;SDS011;36153;50.960;6.220;2023-07-13T13:48:37;3.30;;;1.02;;
50267;SDS011;36153;50.960;6.220;2023-07-13T13:51:37;3.03;;;1.10;;
50267;SDS011;36153;50.960;6.220;2023-07-13T13:54:38;2.78;;;1.30;;
50267;SDS011;36153;50.960;6.220;2023-07-13T13:57:38;1.88;;;1.40;;
50267;SDS011;36153;50.960;6.220;2023-07-13T14:00:39;4.05;;;1.52;;
50267;SDS011;36153;50.960;6.220;2023-07-13T14:03:39;2.65;;;1.17;;
50267;SDS011;36153;50.960;6.220;2023-07-13T14:06:41;3.42;;;1.33;;
50267;SDS011;36153;50.960;6.220;2023-07-13T14:09:42;2.53;;;1.15;;
50267;SDS011;36153;50.960;6.220;2023-07-13T14:12:42;4.18;;;1.10;;
50267;SDS011;36153;50.960;6.220;2023-07-13T14:15:47;2.00;;;1.00;;
50267;SDS011;36153;50.960;6.220;2023-07-13T14:18:48;2.75;;;1.15;;
50267;SDS011;36153;50.960;6.220;2023-07-13T14:21:49;2.83;;;0.88;;
50267;SDS011;36153;50.960;6.220;2023-07-13T14:24:51;2.88;;;1.20;;
50267;SDS011;36153;50.960;6.220;2023-07-13T14:27:58;3.55;;;0.98;;
50267;SDS011;36153;50.960;6.220;2023-07-13T14:31:00;1.65;;;1.10;;
50267;SDS011;36153;50.960;6.220;2023-07-13T14:34:01;3.75;;;1.30;;
50267;SDS011;36153;50.960;6.220;2023-07-13T14:37:01;1.45;;;1.13;;
50267;SDS011;36153;50.960;6.220;2023-07-13T14:43:21;1.90;;;0.80;;
50267;SDS011;36153;50.960;6.220;2023-07-13T14:46:24;13.85;;;1.40;;
50267;SDS011;36153;50.960;6.220;2023-07-13T14:52:37;4.35;;;1.38;;
50267;SDS011;36153;50.960;6.220;2023-07-13T14:55:38;2.10;;;0.93;;
50267;SDS011;36153;50.960;6.220;2023-07-13T14:58:38;7.20;;;1.83;;
50267;SDS011;36153;50.960;6.220;2023-07-13T15:01:41;2.95;;;1.83;;
50267;SDS011;36153;50.960;6.220;2023-07-13T15:04:41;3.45;;;1.60;;
50267;SDS011;36153;50.960;6.220;2023-07-13T15:07:42;1.35;;;1.17;;
50267;SDS011;36153;50.960;6.220;2023-07-13T15:10:42;2.05;;;1.08;;
50267;SDS011;36153;50.960;6.220;2023-07-13T15:13:43;1.63;;;0.98;;
50267;SDS011;36153;50.960;6.220;2023-07-13T15:16:45;2.03;;;1.20;;
50267;SDS011;36153;50.960;6.220;2023-07-13T15:19:48;2.35;;;1.17;;
50267;SDS011;36153;50.960;6.220;2023-07-13T15:22:49;3.33;;;1.35;;
50267;SDS011;36153;50.960;6.220;2023-07-13T15:25:50;2.78;;;1.30;;
50267;SDS011;36153;50.960;6.220;2023-07-13T15:28:51;2.42;;;1.27;;
50267;SDS011;36153;50.960;6.220;2023-07-13T15:31:51;1.70;;;1.50;;
50267;SDS011;36153;50.960;6.220;2023-07-13T15:34:52;2.83;;;1.23;;
50267;SDS011;36153;50.960;6.220;2023-07-13T15:37:52;3.47;;;1.38;;
50267;SDS011;36153;50.960;6.220;2023-07-13T15:40:53;3.42;;;1.70;;
50267;SDS011;36153;50.960;6.220;2023-07-13T15:43:56;2.83;;;1.48;;
50267;SDS011;36153;50.960;6.220;2023-07-13T15:46:58;4.70;;;1.70;;
50267;SDS011;36153;50.960;6.220;2023-07-13T15:50:00;3.35;;;1.10;;
50267;SDS011;36153;50.960;6.220;2023-07-13T15:53:00;2.75;;;1.50;;
50267;SDS011;36153;50.960;6.220;2023-07-13T15:56:04;2.00;;;1.42;;
50267;SDS011;36153;50.960;6.220;2023-07-13T15:59:16;1.98;;;1.50;;
50267;SDS011;36153;50.960;6.220;2023-07-13T16:02:17;3.25;;;1.65;;
50267;SDS011;36153;50.960;6.220;2023-07-13T16:05:20;3.75;;;2.22;;
50267;SDS011;36153;50.960;6.220;2023-07-13T16:08:25;2.53;;;1.05;;
50267;SDS011;36153;50.960;6.220;2023-07-13T16:11:32;4.50;;;1.50;;
50267;SDS011;36153;50.960;6.220;2023-07-13T16:14:35;2.72;;;1.70;;
50267;SDS011;36153;50.960;6.220;2023-07-13T16:17:36;3.08;;;1.30;;
50267;SDS011;36153;50.960;6.220;2023-07-13T16:20:36;1.73;;;0.90;;
50267;SDS011;36153;50.960;6.220;2023-07-13T16:23:37;5.32;;;1.45;;
50267;SDS011;36153;50.960;6.220;2023-07-13T16:26:37;3.17;;;1.30;;
50267;SDS011;36153;50.960;6.220;2023-07-13T16:29:43;1.88;;;1.10;;
50267;SDS011;36153;50.960;6.220;2023-07-13T16:32:43;4.82;;;1.17;;
50267;SDS011;36153;50.960;6.220;2023-07-13T16:35:44;5.35;;;1.35;;
50267;SDS011;36153;50.960;6.220;2023-07-13T16:38:46;3.83;;;1.33;;
50267;SDS011;36153;50.960;6.220;2023-07-13T16:41:46;2.88;;;1.08;;
50267;SDS011;36153;50.960;6.220;2023-07-13T16:44:46;3.22;;;0.82;;
50267;SDS011;36153;50.960;6.220;2023-07-13T16:47:47;2.33;;;1.50;;
50267;SDS011;36153;50.960;6.220;2023-07-13T16:50:54;1.40;;;1.20;;
50267;SDS011;36153;50.960;6.220;2023-07-13T16:53:56;3.80;;;1.15;;
50267;SDS011;36153;50.960;6.220;2023-07-13T16:56:57;3.15;;;1.33;;
50267;SDS011;36153;50.960;6.220;2023-07-13T16:59:59;2.00;;;1.35;;
50267;SDS011;36153;50.960;6.220;2023-07-13T17:03:02;1.85;;;1.13;;
50267;SDS011;36153;50.960;6.220;2023-07-13T17:06:15;2.70;;;1.50;;
50267;SDS011;36153;50.960;6.220;2023-07-13T17:09:24;2.25;;;1.23;;
50267;SDS011;36153;50.960;6.220;2023-07-13T17:12:25;3.25;;;1.20;;
50267;SDS011;36153;50.960;6.220;2023-07-13T17:15:25;3.88;;;1.70;;
50267;SDS011;36153;50.960;6.220;2023-07-13T17:18:29;1.38;;;1.00;;
50267;SDS011;36153;50.960;6.220;2023-07-13T17:21:36;2.03;;;1.75;;
50267;SDS011;36153;50.960;6.220;2023-07-13T17:24:36;2.42;;;1.10;;
50267;SDS011;36153;50.960;6.220;2023-07-13T17:27:36;2.53;;;1.00;;
50267;SDS011;36153;50.960;6.220;2023-07-13T17:30:37;3.60;;;1.70;;
50267;SDS011;36153;50.960;6.220;2023-07-13T17:33:39;4.20;;;1.20;;
50267;SDS011;36153;50.960;6.220;2023-07-13T17:36:42;3.70;;;1.20;;
50267;SDS011;36153;50.960;6.220;2023-07-13T17:39:42;8.40;;;1.50;;
50267;SDS011;36153;50.960;6.220;2023-07-13T17:42:44;3.85;;;1.23;;
50267;SDS011;36153;50.960;6.220;2023-07-13T17:45:45;2.88;;;1.40;;
50267;SDS011;36153;50.960;6.220;2023-07-13T17:48:46;3.03;;;1.65;;
50267;SDS011;36153;50.960;6.220;2023-07-13T17:51:49;2.35;;;1.13;;
50267;SDS011;36153;50.960;6.220;2023-07-13T17:54:50;3.33;;;1.45;;
50267;SDS011;36153;50.960;6.220;2023-07-13T17:57:50;2.13;;;1.15;;
50267;SDS011;36153;50.960;6.220;2023-07-13T18:00:51;3.55;;;1.60;;
50267;SDS011;36153;50.960;6.220;2023-07-13T18:03:51;1.73;;;0.95;;
50267;SDS011;36153;50.960;6.220;2023-07-13T18:06:57;2.55;;;1.27;;
50267;SDS011;36153;50.960;6.220;2023-07-13T18:10:12;2.58;;;1.17;;
50267;SDS011;36153;50.960;6.220;2023-07-13T18:13:13;1.98;;;1.52;;
50267;SDS011;36153;50.960;6.220;2023-07-13T18:19:40;1.73;;;1.00;;
50267;SDS011;36153;50.960;6.220;2023-07-13T18:22:41;9.85;;;1.60;;
50267;SDS011;36153;50.960;6.220;2023-07-13T18:25:41;13.88;;;1.83;;
50267;SDS011;36153;50.960;6.220;2023-07-13T18:28:42;12.48;;;2.25;;
50267;SDS011;36153;50.960;6.220;2023-07-13T18:31:43;15.73;;;1.88;;
50267;SDS011;36153;50.960;6.220;2023-07-13T18:34:43;19.60;;;2.80;;
50267;SDS011;36153;50.960;6.220;2023-07-13T18:37:44;7.57;;;2.08;;
50267;SDS011;36153;50.960;6.220;2023-07-13T18:40:45;50.83;;;4.15;;
50267;SDS011;36153;50.960;6.220;2023-07-13T18:43:46;15.52;;;2.92;;
50267;SDS011;36153;50.960;6.220;2023-07-13T18:46:48;13.65;;;1.70;;
50267;SDS011;36153;50.960;6.220;2023-07-13T18:49:48;10.23;;;1.20;;
50267;SDS011;36153;50.960;6.220;2023-07-13T18:52:49;12.85;;;2.08;;
50267;SDS011;36153;50.960;6.220;2023-07-13T18:55:50;5.32;;;1.63;;
50267;SDS011;36153;50.960;6.220;2023-07-13T18:58:51;16.52;;;2.03;;
50267;SDS011;36153;50.960;6.220;2023-07-13T19:01:52;5.93;;;1.20;;